Time;durP1;ratioP1;P1;durP2;ratioP2;P2;SDS_P1;SDS_P2;PMS_P1;PMS_P2;Temp;Humidity;BMP_temperature;BMP_pressure;BME280_temperature;BME280_humidity;BME280_pressure;Samples;Min_cycle;Max_cycle;Signal;HPM_P1;HPM_P2
2022/04/28 00:02:12;;;;;;;7.50;5.07;;;4.30;99.90;;;;;;8222064;28;20213;-70
2022/04/28 00:06:14;;;;;;;7.80;5.23;;;4.40;99.90;;;;;;8219927;28;20196;-71
2022/04/28 00:10:16;;;;;;;7.57;5.40;;;4.50;99.90;;;;;;8230917;28;20247;-71
2022/04/28 00:14:17;;;;;;;8.17;5.50;;;4.60;99.90;;;;;;8216774;28;20190;-71
2022/04/28 00:18:18;;;;;;;7.87;5.30;;;4.80;99.90;;;;;;8226809;28;20255;-72
2022/04/28 00:22:19;;;;;;;5.80;4.77;;;4.90;1.00;;;;;;8214717;28;20228;-71
2022/04/28 00:26:20;;;;;;;8.47;5.70;;;5.00;1.00;;;;;;8211527;28;20218;-71
2022/04/28 00:30:21;;;;;;;9.60;6.00;;;5.10;1.00;;;;;;8215755;28;20227;-70
2022/04/28 00:34:22;;;;;;;7.13;5.70;;;5.30;99.90;;;;;;8215717;28;20192;-71
2022/04/28 00:38:23;;;;;;;10.70;5.90;;;5.40;1.00;;;;;;8221163;28;20240;-70
2022/04/28 00:42:24;;;;;;;7.37;5.67;;;5.50;99.90;;;;;;8218996;28;20327;-71
2022/04/28 00:46:25;;;;;;;9.60;6.23;;;5.60;99.90;;;;;;8235524;28;20214;-71
2022/04/28 00:50:41;;;;;;;8.57;6.00;;;5.60;99.90;;;;;;8221737;28;20200;-71
2022/04/28 00:54:43;;;;;;;7.70;6.13;;;5.60;99.90;;;;;;8226386;28;20199;-71
2022/04/28 00:58:46;;;;;;;8.40;5.50;;;5.70;1.00;;;;;;8239836;28;20211;-71
2022/04/28 01:02:46;;;;;;;8.27;5.53;;;5.70;1.00;;;;;;8227086;28;20306;-71
2022/04/28 01:06:48;;;;;;;8.93;6.00;;;5.80;1.00;;;;;;8240157;28;20211;-71
2022/04/28 01:10:49;;;;;;;7.30;5.53;;;5.80;99.90;;;;;;8224854;28;20195;-71
2022/04/28 01:14:50;;;;;;;7.07;5.20;;;5.90;99.90;;;;;;8223319;28;20473;-71
2022/04/28 01:18:51;;;;;;;11.37;5.83;;;5.90;23.00;;;;;;8221959;28;20280;-71
2022/04/28 01:22:52;;;;;;;8.90;5.93;;;6.00;1.00;;;;;;8221816;28;20212;-70
2022/04/28 01:26:55;;;;;;;6.97;5.20;;;6.00;99.90;;;;;;8226635;28;20184;-70
2022/04/28 01:30:58;;;;;;;6.83;5.13;;;6.10;99.90;;;;;;8239680;28;20291;-71
2022/04/28 01:34:59;;;;;;;7.43;4.57;;;6.10;99.90;;;;;;8239715;28;20201;-70
2022/04/28 01:39:00;;;;;;;6.93;5.27;;;6.20;99.90;;;;;;8224855;28;20211;-71
2022/04/28 01:43:01;;;;;;;6.83;5.23;;;6.20;92.70;;;;;;8224866;28;20216;-71
2022/04/28 01:47:02;;;;;;;8.10;5.20;;;6.20;99.90;;;;;;8221665;28;20319;-71
2022/04/28 01:55:22;;;;;;;9.83;5.87;;;6.30;99.90;;;;;;8220889;28;20291;-71
2022/04/28 01:59:23;;;;;;;9.93;5.50;;;6.40;99.90;;;;;;8237849;28;20188;-72
2022/04/28 02:03:24;;;;;;;7.73;5.43;;;6.40;99.90;;;;;;8224672;28;20215;-70
2022/04/28 02:07:25;;;;;;;8.03;5.50;;;6.40;99.90;;;;;;8241727;28;20590;-71
2022/04/28 02:11:26;;;;;;;8.40;5.70;;;6.50;99.90;;;;;;8225945;28;20188;-71
2022/04/28 02:15:27;;;;;;;9.27;6.17;;;6.50;99.90;;;;;;8237760;28;20231;-71
2022/04/28 02:19:28;;;;;;;9.20;6.20;;;6.50;99.90;;;;;;8237004;28;20207;-71
2022/04/28 02:23:29;;;;;;;7.30;5.73;;;6.60;60.50;;;;;;8241400;28;20311;-71
2022/04/28 02:27:30;;;;;;;7.40;5.97;;;6.60;27.80;;;;;;8221404;28;20328;-72
2022/04/28 02:31:30;;;;;;;7.83;5.77;;;6.60;1.00;;;;;;8230492;28;20181;-71
2022/04/28 02:35:31;;;;;;;9.03;6.17;;;6.60;1.00;;;;;;8221436;28;20204;-71
2022/04/28 02:39:32;;;;;;;9.07;6.40;;;6.60;1.00;;;;;;8228488;28;20290;-71
2022/04/28 02:43:34;;;;;;;9.07;6.00;;;6.70;1.00;;;;;;8222878;28;20220;-72
2022/04/28 02:47:35;;;;;;;6.83;5.70;;;6.70;1.00;;;;;;8234266;28;20215;-72
2022/04/28 02:51:36;;;;;;;9.30;6.30;;;6.70;1.00;;;;;;8222200;28;20180;-71
2022/04/28 02:55:39;;;;;;;8.53;5.93;;;6.70;99.90;;;;;;8215310;28;20235;-71
2022/04/28 02:59:40;;;;;;;8.03;5.80;;;6.70;99.90;;;;;;8237669;28;20181;-71
2022/04/28 03:03:41;;;;;;;6.70;5.90;;;6.70;99.90;;;;;;8241034;28;20209;-71
2022/04/28 03:12:09;;;;;;;8.50;5.33;;;6.80;99.90;;;;;;8224585;28;20343;-70
2022/04/28 03:16:10;;;;;;;6.50;5.07;;;6.80;99.90;;;;;;8220132;28;20188;-71
2022/04/28 03:20:11;;;;;;;8.13;5.43;;;6.80;99.90;;;;;;8242378;28;20192;-71
2022/04/28 03:24:12;;;;;;;7.33;5.53;;;6.80;99.90;;;;;;8242656;28;20223;-71
2022/04/28 03:28:13;;;;;;;7.83;5.53;;;6.80;99.90;;;;;;8234768;28;20200;-71
2022/04/28 03:32:14;;;;;;;8.80;6.13;;;6.80;99.90;;;;;;8228054;28;20191;-71
2022/04/28 03:40:34;;;;;;;7.27;5.10;;;6.90;99.90;;;;;;8218476;28;20295;-71
2022/04/28 03:44:35;;;;;;;8.30;5.40;;;6.90;99.90;;;;;;8230478;28;20216;-71
2022/04/28 03:48:37;;;;;;;7.27;5.33;;;6.90;39.20;;;;;;8233774;28;20208;-71
2022/04/28 03:52:38;;;;;;;7.07;5.37;;;7.00;11.30;;;;;;8218647;28;20185;-71
2022/04/28 03:56:39;;;;;;;6.17;5.13;;;7.00;99.90;;;;;;8217547;28;20212;-71
2022/04/28 04:00:41;;;;;;;7.40;5.07;;;7.00;20.30;;;;;;8218538;28;20195;-71
2022/04/28 04:04:41;;;;;;;7.23;5.20;;;7.10;30.50;;;;;;8224630;28;20214;-72
2022/04/28 04:08:42;;;;;;;5.70;4.67;;;7.10;1.00;;;;;;8213866;28;20212;-71
2022/04/28 04:12:43;;;;;;;8.07;5.80;;;7.20;1.00;;;;;;8232396;28;20177;-71
2022/04/28 04:16:44;;;;;;;9.90;5.27;;;7.40;1.00;;;;;;8223520;28;20712;-71
2022/04/28 04:20:45;;;;;;;8.37;6.30;;;7.40;1.00;;;;;;8218285;28;20311;-71
2022/04/28 04:24:46;;;;;;;9.27;5.13;;;7.40;1.00;;;;;;8213168;28;20276;-71
2022/04/28 04:28:47;;;;;;;8.70;6.33;;;7.50;1.00;;;;;;8216661;28;20197;-71
2022/04/28 04:32:48;;;;;;;7.97;6.13;;;7.60;1.00;;;;;;8213271;28;20216;-71
2022/04/28 04:36:49;;;;;;;9.10;5.97;;;7.90;99.90;;;;;;8216745;28;20201;-71
2022/04/28 04:40:50;;;;;;;7.93;5.37;;;8.30;99.90;;;;;;8217346;28;20247;-72
2022/04/28 04:44:51;;;;;;;7.77;5.67;;;8.70;80.20;;;;;;8233478;28;20223;-71
2022/04/28 04:48:52;;;;;;;11.00;6.27;;;9.30;1.00;;;;;;8217470;28;20189;-72
2022/04/28 04:52:52;;;;;;;9.37;5.70;;;9.60;99.90;;;;;;8218327;28;20192;-71
2022/04/28 04:56:53;;;;;;;7.10;5.90;;;9.80;99.90;;;;;;8218624;28;20197;-71
2022/04/28 05:00:54;;;;;;;10.00;5.80;;;9.80;99.90;;;;;;8234676;28;20227;-73
2022/04/28 05:04:55;;;;;;;9.57;5.40;;;9.70;99.90;;;;;;8219711;28;20217;-71
2022/04/28 05:08:56;;;;;;;7.47;5.73;;;9.60;1.00;;;;;;8233663;28;20185;-71
2022/04/28 05:12:57;;;;;;;8.70;5.73;;;9.50;1.00;;;;;;8215128;28;20198;-71
2022/04/28 05:16:58;;;;;;;8.30;5.60;;;9.50;1.00;;;;;;8232280;28;20200;-71
2022/04/28 05:20:59;;;;;;;7.73;5.67;;;9.70;1.00;;;;;;8234536;28;20292;-71
2022/04/28 05:25:00;;;;;;;6.93;5.50;;;10.10;1.00;;;;;;8240468;28;20236;-71
2022/04/28 05:29:01;;;;;;;8.03;5.37;;;10.30;99.90;;;;;;8216830;28;20238;-71
2022/04/28 05:33:02;;;;;;;6.87;5.23;;;10.50;99.90;;;;;;8218389;28;20227;-72
2022/04/28 05:37:04;;;;;;;7.13;5.20;;;10.60;99.90;;;;;;8238271;28;20229;-71
2022/04/28 05:41:06;;;;;;;7.17;6.07;;;10.40;99.90;;;;;;8236786;28;20214;-70
2022/04/28 05:49:27;;;;;;;6.70;5.20;;;10.80;99.90;;;;;;8221664;28;20288;-72
2022/04/28 05:53:27;;;;;;;7.77;5.40;;;11.00;99.90;;;;;;8224403;28;20199;-71
2022/04/28 05:57:28;;;;;;;6.93;5.43;;;10.70;99.90;;;;;;8221251;28;20204;-70
2022/04/28 06:01:29;;;;;;;6.63;5.47;;;10.20;99.90;;;;;;8238407;28;20201;-70
2022/04/28 06:05:30;;;;;;;8.60;5.40;;;10.10;99.90;;;;;;8222780;28;20221;-69
2022/04/28 06:09:31;;;;;;;9.27;5.77;;;10.10;99.90;;;;;;8222372;28;20192;-71
2022/04/28 06:13:32;;;;;;;7.73;5.03;;;10.30;99.90;;;;;;8219183;28;20281;-71
2022/04/28 06:17:33;;;;;;;8.67;5.67;;;10.50;99.90;;;;;;8241392;28;20279;-71
2022/04/28 06:21:34;;;;;;;8.30;5.57;;;10.70;99.90;;;;;;8227203;28;20185;-70
2022/04/28 06:25:35;;;;;;;6.40;4.73;;;10.80;99.90;;;;;;8232545;28;20214;-69
2022/04/28 06:29:36;;;;;;;6.03;4.47;;;10.90;42.50;;;;;;8216011;28;20256;-67
2022/04/28 06:33:40;;;;;;;6.80;4.07;;;11.00;99.90;;;;;;8214680;28;20206;-67
2022/04/28 06:37:41;;;;;;;10.30;4.17;;;10.90;2.70;;;;;;8233309;28;20199;-68
2022/04/28 06:41:42;;;;;;;4.83;3.87;;;11.10;99.90;;;;;;8233193;28;20216;-67
2022/04/28 06:46:11;;;;;;;6.23;3.97;;;11.50;1.00;;;;;;8212936;28;20195;-68
2022/04/28 06:50:04;;;;;;;5.53;3.20;;;11.80;1.00;;;;;;8218036;28;20195;-67
2022/04/28 06:54:05;;;;;;;5.73;3.17;;;11.80;99.90;;;;;;8229223;28;20265;-67
2022/04/28 06:58:06;;;;;;;2.93;2.60;;;11.80;1.00;;;;;;8229968;28;20191;-67
2022/04/28 07:02:08;;;;;;;3.73;2.70;;;11.80;99.90;;;;;;8232970;28;20297;-68
2022/04/28 07:06:09;;;;;;;5.20;2.70;;;11.90;99.90;;;;;;8230895;28;20289;-69
2022/04/28 07:10:10;;;;;;;4.67;2.97;;;12.00;99.90;;;;;;8217442;28;20199;-67
2022/04/28 07:14:11;;;;;;;7.00;2.90;;;11.90;99.90;;;;;;8229455;28;20258;-68
2022/04/28 07:18:12;;;;;;;3.40;3.03;;;12.20;99.90;;;;;;8215794;28;20226;-68
2022/04/28 07:22:12;;;;;;;4.03;2.67;;;12.20;99.90;;;;;;8210242;28;20212;-68
2022/04/28 07:26:13;;;;;;;3.13;2.43;;;12.40;99.90;;;;;;8205897;28;20243;-70
2022/04/28 07:30:14;;;;;;;3.80;2.90;;;12.60;99.90;;;;;;8222350;28;20208;-66
2022/04/28 07:34:15;;;;;;;6.30;3.10;;;12.90;99.90;;;;;;8211920;28;20203;-68
2022/04/28 07:38:16;;;;;;;3.93;2.80;;;12.60;99.90;;;;;;8199716;28;20231;-68
2022/04/28 07:42:17;;;;;;;5.40;3.10;;;12.50;99.90;;;;;;8211453;28;20240;-66
2022/04/28 07:46:18;;;;;;;3.77;2.93;;;12.70;99.90;;;;;;8209077;28;20235;-67
2022/04/28 07:50:19;;;;;;;4.43;3.07;;;12.70;99.90;;;;;;8225040;28;20190;-67
2022/04/28 07:54:20;;;;;;;6.43;3.47;;;12.80;99.90;;;;;;8213380;28;20200;-67
2022/04/28 07:58:21;;;;;;;5.43;3.43;;;13.00;99.90;;;;;;8214687;28;20249;-67
2022/04/28 08:02:22;;;;;;;5.07;3.47;;;13.40;99.90;;;;;;8211466;28;20212;-67
2022/04/28 08:06:23;;;;;;;5.00;3.80;;;13.50;99.90;;;;;;8211535;28;20215;-68
2022/04/28 08:10:24;;;;;;;4.57;2.93;;;13.30;99.90;;;;;;8231001;28;20188;-66
2022/04/28 08:14:25;;;;;;;4.87;3.47;;;13.50;99.90;;;;;;8207846;28;20227;-67
2022/04/28 08:18:25;;;;;;;6.30;3.20;;;14.00;99.90;;;;;;8217934;28;20243;-67
2022/04/28 08:22:26;;;;;;;4.90;3.70;;;13.70;99.90;;;;;;8226840;28;20303;-67
2022/04/28 08:26:27;;;;;;;4.43;3.30;;;13.80;99.90;;;;;;8232739;28;20196;-67
2022/04/28 08:30:28;;;;;;;6.27;3.53;;;13.80;99.90;;;;;;8217147;28;20215;-68
2022/04/28 08:34:28;;;;;;;5.67;3.70;;;13.70;99.90;;;;;;8228579;28;20263;-67
2022/04/28 08:38:31;;;;;;;5.70;3.50;;;13.70;99.90;;;;;;8230950;28;20231;-67
2022/04/28 08:42:36;;;;;;;5.60;3.20;;;14.00;99.90;;;;;;8211536;28;20307;-67
2022/04/28 08:46:52;;;;;;;8.73;3.73;;;14.20;99.90;;;;;;8211393;28;20186;-65
2022/04/28 08:50:53;;;;;;;5.53;2.77;;;14.60;99.90;;;;;;8214800;28;20184;-67
2022/04/28 08:54:55;;;;;;;6.90;3.83;;;14.80;98.60;;;;;;8227753;28;20188;-67
2022/04/28 08:58:55;;;;;;;4.03;2.90;;;14.70;99.90;;;;;;8213718;28;20184;-66
2022/04/28 09:02:56;;;;;;;5.20;2.83;;;14.40;99.90;;;;;;8228998;28;20216;-68
2022/04/28 09:06:58;;;;;;;5.03;3.40;;;14.60;99.90;;;;;;8213475;28;20188;-67
2022/04/28 09:11:00;;;;;;;7.43;3.50;;;14.80;99.90;;;;;;8218514;28;20184;-67
2022/04/28 09:15:12;;;;;;;3.90;3.30;;;14.30;99.90;;;;;;8235229;28;20271;-67
2022/04/28 09:19:13;;;;;;;4.53;3.70;;;14.50;99.90;;;;;;8217699;28;20195;-66
2022/04/28 09:23:15;;;;;;;3.47;2.67;;;14.50;99.90;;;;;;8210179;28;20215;-67
2022/04/28 09:27:16;;;;;;;5.27;3.20;;;14.50;99.90;;;;;;8221401;28;20212;-67
2022/04/28 09:31:18;;;;;;;7.03;3.33;;;14.80;99.90;;;;;;8219247;28;20215;-68
2022/04/28 09:35:19;;;;;;;5.27;3.77;;;15.20;99.90;;;;;;8219233;28;20208;-67
2022/04/28 09:43:41;;;;;;;4.50;3.47;;;14.70;99.90;;;;;;8215262;28;20263;-65
2022/04/28 09:47:42;;;;;;;5.37;2.80;;;14.90;97.00;;;;;;8218837;28;20428;-66
2022/04/28 09:51:44;;;;;;;4.53;3.10;;;15.20;71.10;;;;;;8234502;28;20185;-66
2022/04/28 09:55:45;;;;;;;4.00;3.03;;;15.50;71.80;;;;;;8217115;28;20280;-69
2022/04/28 09:59:54;;;;;;;3.73;2.97;;;15.60;30.00;;;;;;8234586;28;20188;-69
2022/04/28 10:03:56;;;;;;;4.40;4.00;;;15.60;99.90;;;;;;8221672;28;20216;-68
2022/04/28 10:07:57;;;;;;;6.37;3.30;;;15.80;27.40;;;;;;8218861;28;20283;-68
2022/04/28 10:11:59;;;;;;;5.53;3.17;;;15.80;48.20;;;;;;8235887;28;20307;-67
2022/04/28 10:16:10;;;;;;;7.60;3.23;;;15.60;48.90;;;;;;8235870;28;20187;-67
2022/04/28 10:20:23;;;;;;;3.97;3.57;;;15.30;37.90;;;;;;8219739;28;20201;-67
2022/04/28 10:33:08;;;;;;;3.83;3.30;;;15.70;45.40;;;;;;8215900;28;20235;-68
2022/04/28 10:37:12;;;;;;;3.67;2.83;;;15.70;27.70;;;;;;8229571;28;20267;-68
2022/04/28 10:41:16;;;;;;;4.33;3.27;;;15.60;54.10;;;;;;8219191;28;20299;-68
2022/04/28 10:45:28;;;;;;;6.50;3.33;;;15.50;81.20;;;;;;8214298;28;20287;-70
2022/04/28 10:49:39;;;;;;;6.50;3.27;;;15.80;28.50;;;;;;8217381;28;20236;-68
2022/04/28 10:53:58;;;;;;;4.77;3.50;;;16.10;35.80;;;;;;8231148;28;20200;-68
2022/04/28 10:58:25;;;;;;;5.23;3.03;;;15.70;25.60;;;;;;8216664;28;20327;-67
2022/04/28 11:02:26;;;;;;;4.07;2.77;;;15.50;38.40;;;;;;8216658;28;20250;-68
2022/04/28 11:06:30;;;;;;;4.97;3.23;;;16.10;46.00;;;;;;8214040;28;20193;-68
2022/04/28 11:10:30;;;;;;;4.37;2.87;;;16.10;26.90;;;;;;8234479;28;20216;-67
2022/04/28 11:15:02;;;;;;;6.27;3.23;;;16.30;18.00;;;;;;8216404;28;20197;-68
2022/04/28 11:19:03;;;;;;;5.90;2.93;;;16.10;3.60;;;;;;8214824;28;20222;-67
2022/04/28 11:23:04;;;;;;;5.13;2.73;;;16.20;40.00;;;;;;8232599;28;20212;-68
2022/04/28 11:27:05;;;;;;;5.13;2.63;;;16.60;1.00;;;;;;8228757;28;20235;-67
2022/04/28 11:31:24;;;;;;;6.87;2.80;;;17.00;8.00;;;;;;8213789;28;20200;-68
2022/04/28 11:35:35;;;;;;;3.97;2.90;;;16.90;1.00;;;;;;8212940;28;20193;-69
2022/04/28 11:39:36;;;;;;;3.30;3.00;;;16.20;1.00;;;;;;8218455;28;20493;-69
2022/04/28 11:43:36;;;;;;;3.70;3.00;;;16.20;1.00;;;;;;8213904;28;20570;-69
2022/04/28 11:47:43;;;;;;;5.33;2.97;;;16.10;1.00;;;;;;8229164;28;20192;-68
2022/04/28 11:51:44;;;;;;;3.13;2.63;;;16.00;17.50;;;;;;8214439;28;20188;-69
2022/04/28 11:55:48;;;;;;;4.90;2.80;;;16.50;4.90;;;;;;8213429;28;20196;-67
2022/04/28 11:59:49;;;;;;;5.70;2.53;;;16.60;39.70;;;;;;8215473;28;20223;-68
2022/04/28 12:03:53;;;;;;;4.30;2.47;;;16.20;1.00;;;;;;8224246;28;20212;-67
2022/04/28 12:07:54;;;;;;;7.23;3.60;;;15.90;27.90;;;;;;8212027;28;20284;-68
2022/04/28 12:16:19;;;;;;;2.90;2.00;;;16.40;7.00;;;;;;8211963;28;20191;-68
2022/04/28 12:20:22;;;;;;;5.13;2.10;;;17.10;20.30;;;;;;8210127;28;20188;-69
2022/04/28 12:24:26;;;;;;;3.47;2.37;;;17.50;2.20;;;;;;8213278;28;20220;-68
2022/04/28 12:28:31;;;;;;;3.73;2.80;;;17.90;1.00;;;;;;8222806;28;20192;-69
2022/04/28 12:32:45;;;;;;;3.50;2.90;;;16.90;1.00;;;;;;8231353;28;20188;-67
2022/04/28 12:36:50;;;;;;;3.70;2.70;;;16.30;14.70;;;;;;8209190;28;20194;-68
2022/04/28 12:40:51;;;;;;;4.63;2.70;;;16.50;1.00;;;;;;8210237;28;20215;-69
2022/04/28 12:44:53;;;;;;;4.43;2.37;;;16.70;6.90;;;;;;8217250;28;20238;-70
2022/04/28 12:48:56;;;;;;;3.47;2.20;;;17.10;1.00;;;;;;8213350;28;20193;-70
2022/04/28 12:52:56;;;;;;;2.90;2.20;;;17.60;1.00;;;;;;8218937;28;20622;-68
2022/04/28 12:57:00;;;;;;;5.10;2.67;;;17.80;1.00;;;;;;8223285;28;20268;-64
2022/04/28 13:01:02;;;;;;;4.27;2.70;;;17.30;1.00;;;;;;8216278;28;20176;-69
2022/04/28 13:05:14;;;;;;;3.60;2.30;;;17.00;9.80;;;;;;8227360;28;20221;-68
2022/04/28 13:09:15;;;;;;;3.37;2.67;;;16.60;1.00;;;;;;8221751;28;20277;-67
2022/04/28 13:13:16;;;;;;;3.67;2.80;;;16.40;1.00;;;;;;8215417;28;20251;-71
2022/04/28 13:17:17;;;;;;;2.57;2.00;;;16.50;1.00;;;;;;8230555;28;20200;-70
2022/04/28 13:21:18;;;;;;;4.27;2.00;;;17.30;1.00;;;;;;8212488;28;20607;-67
2022/04/28 13:25:19;;;;;;;4.50;2.07;;;18.20;1.00;;;;;;8225406;28;20224;-69
2022/04/28 13:29:20;;;;;;;5.17;2.40;;;18.20;1.00;;;;;;8230628;28;20200;-68
2022/04/28 13:33:21;;;;;;;3.33;2.00;;;17.40;1.00;;;;;;8214681;28;20192;-67
2022/04/28 13:37:21;;;;;;;5.27;2.47;;;16.80;1.00;;;;;;8213994;28;20196;-67
2022/04/28 13:41:22;;;;;;;3.27;2.03;;;16.40;1.00;;;;;;8219540;28;20244;-68
2022/04/28 13:45:23;;;;;;;7.17;2.43;;;16.30;1.00;;;;;;8229058;28;20311;-68
2022/04/28 13:49:24;;;;;;;4.80;2.33;;;16.70;2.20;;;;;;8223631;28;20568;-67
2022/04/28 13:53:28;;;;;;;3.10;2.80;;;17.30;1.00;;;;;;8235993;28;20199;-68
2022/04/28 13:57:28;;;;;;;4.50;1.97;;;17.00;1.00;;;;;;8236516;28;20198;-68
2022/04/28 14:01:31;;;;;;;3.67;2.43;;;16.40;1.00;;;;;;8214162;28;20201;-70
2022/04/28 14:05:31;;;;;;;4.27;2.60;;;16.30;1.00;;;;;;8212429;28;20255;-68
2022/04/28 14:09:33;;;;;;;3.60;2.30;;;16.50;1.00;;;;;;8214227;28;20263;-68
2022/04/28 14:13:35;;;;;;;5.13;2.20;;;16.80;1.00;;;;;;8232922;28;20492;-68
2022/04/28 14:17:38;;;;;;;3.50;2.10;;;17.10;1.00;;;;;;8222464;28;20196;-67
2022/04/28 14:21:38;;;;;;;4.37;2.57;;;16.90;1.00;;;;;;8232100;28;20287;-68
2022/04/28 14:25:39;;;;;;;4.77;2.40;;;16.60;1.00;;;;;;8213653;28;20216;-69
2022/04/28 14:29:40;;;;;;;6.30;2.20;;;16.50;1.00;;;;;;8213668;28;20254;-69
2022/04/28 14:33:42;;;;;;;2.87;2.20;;;16.90;1.00;;;;;;8228678;28;20223;-68
2022/04/28 14:37:43;;;;;;;3.13;1.80;;;16.70;1.00;;;;;;8214851;28;20251;-68
2022/04/28 14:41:44;;;;;;;3.77;2.30;;;16.40;1.00;;;;;;8213846;28;20213;-71
2022/04/28 14:45:45;;;;;;;3.30;2.20;;;16.20;1.00;;;;;;8211535;28;20239;-67
2022/04/28 14:54:05;;;;;;;3.90;2.60;;;16.30;1.10;;;;;;8212565;28;20263;-68
2022/04/28 14:58:08;;;;;;;3.07;2.27;;;16.40;1.00;;;;;;8225536;28;20192;-69
2022/04/28 15:02:11;;;;;;;4.50;2.30;;;16.40;1.00;;;;;;8217979;28;20193;-68
2022/04/28 15:06:13;;;;;;;3.67;2.40;;;16.60;1.00;;;;;;8207141;28;20193;-68
2022/04/28 15:10:14;;;;;;;6.07;2.60;;;16.80;1.00;;;;;;8225170;28;20224;-67
2022/04/28 15:14:15;;;;;;;4.30;2.30;;;16.60;1.00;;;;;;8205127;28;20193;-67
2022/04/28 15:18:17;;;;;;;4.57;1.97;;;16.20;1.00;;;;;;8197338;28;20279;-69
2022/04/28 15:22:18;;;;;;;2.80;2.00;;;15.90;1.00;;;;;;8221225;28;20192;-68
2022/04/28 15:26:19;;;;;;;4.50;2.40;;;15.90;1.00;;;;;;8222050;28;20284;-70
2022/04/28 15:30:20;;;;;;;4.93;1.77;;;16.20;1.00;;;;;;8224503;28;20200;-67
2022/04/28 15:34:21;;;;;;;5.27;2.27;;;16.40;1.00;;;;;;8199393;28;20188;-69
2022/04/28 15:38:22;;;;;;;3.57;1.87;;;16.50;1.00;;;;;;8219877;28;20242;-70
2022/04/28 15:42:23;;;;;;;6.87;2.40;;;16.40;1.00;;;;;;8212060;28;20197;-66
2022/04/28 15:46:24;;;;;;;4.70;2.20;;;16.50;1.00;;;;;;8218275;28;20196;-68
2022/04/28 15:50:24;;;;;;;18.07;10.63;;;16.40;1.00;;;;;;8202784;28;20192;-67
2022/04/28 15:54:25;;;;;;;307.83;200.73;;;16.40;1.00;;;;;;8219076;28;20200;-71
2022/04/28 15:58:26;;;;;;;7.23;4.87;;;16.40;1.00;;;;;;8218586;28;20193;-67
2022/04/28 16:02:27;;;;;;;3.47;2.30;;;16.40;1.00;;;;;;8207426;28;20223;-68
2022/04/28 16:06:28;;;;;;;5.87;2.37;;;16.20;1.00;;;;;;8219536;28;20199;-68
2022/04/28 16:10:29;;;;;;;8.50;4.70;;;16.00;1.00;;;;;;8207287;28;20193;-70
2022/04/28 16:14:31;;;;;;;19.33;13.33;;;15.90;1.00;;;;;;8222307;28;20724;-68
2022/04/28 16:18:35;;;;;;;24.77;15.57;;;15.90;1.00;;;;;;8213420;28;20193;-67
2022/04/28 16:22:35;;;;;;;2.80;2.07;;;16.10;1.00;;;;;;8231126;28;20240;-68
2022/04/28 16:26:36;;;;;;;3.70;2.70;;;16.20;1.00;;;;;;8221429;28;20295;-67
2022/04/28 16:30:39;;;;;;;40.90;32.07;;;16.00;1.00;;;;;;8215419;28;20227;-69
2022/04/28 16:34:40;;;;;;;3.57;2.53;;;15.90;1.00;;;;;;8224441;28;20195;-69
2022/04/28 16:38:41;;;;;;;5.83;2.40;;;15.90;1.00;;;;;;8209610;28;20223;-69
2022/04/28 16:42:43;;;;;;;14.63;10.00;;;15.80;1.00;;;;;;8211074;28;20203;-70
2022/04/28 16:46:44;;;;;;;38.47;19.57;;;15.80;1.00;;;;;;8227425;28;20188;-69
2022/04/28 16:50:45;;;;;;;4.20;2.20;;;15.70;1.00;;;;;;8213523;28;20195;-69
2022/04/28 16:54:47;;;;;;;5.87;2.63;;;15.60;1.00;;;;;;8219724;28;20200;-69
2022/04/28 16:58:47;;;;;;;15.23;8.80;;;15.60;1.00;;;;;;8209016;28;20200;-70
2022/04/28 17:07:09;;;;;;;3.63;2.13;;;15.50;1.00;;;;;;8212411;28;20219;-69
2022/04/28 17:11:09;;;;;;;4.20;2.17;;;15.50;1.00;;;;;;8207552;28;20189;-69
2022/04/28 17:15:11;;;;;;;3.00;1.60;;;15.30;1.00;;;;;;8208186;28;20192;-69
2022/04/28 17:19:12;;;;;;;4.73;2.83;;;15.30;1.00;;;;;;8205550;28;20207;-69
2022/04/28 17:23:13;;;;;;;25.80;10.23;;;15.20;1.00;;;;;;8212388;28;20255;-69
2022/04/28 17:27:14;;;;;;;12.10;4.07;;;15.10;1.00;;;;;;8216855;28;20188;-69
2022/04/28 17:31:15;;;;;;;2.93;2.27;;;15.10;1.00;;;;;;8212692;28;20215;-69
2022/04/28 17:35:16;;;;;;;2.97;2.10;;;15.10;1.00;;;;;;8235172;28;20230;-69
2022/04/28 17:39:17;;;;;;;3.90;2.37;;;15.10;1.00;;;;;;8223808;28;20213;-69
2022/04/28 17:43:18;;;;;;;3.03;2.27;;;15.20;1.00;;;;;;8225634;28;20220;-70
2022/04/28 17:47:19;;;;;;;3.13;2.03;;;15.20;1.00;;;;;;8221930;28;20255;-69
2022/04/28 17:51:20;;;;;;;3.43;2.73;;;15.10;1.00;;;;;;8220720;28;20189;-69
2022/04/28 17:59:58;;;;;;;4.17;2.00;;;14.80;5.60;;;;;;8217020;28;20199;-70
2022/04/28 18:04:00;;;;;;;3.00;1.67;;;14.60;12.50;;;;;;8233172;28;20469;-70
2022/04/28 18:08:01;;;;;;;1.90;1.40;;;14.20;29.00;;;;;;8220342;28;20184;-70
2022/04/28 18:12:03;;;;;;;2.60;2.03;;;13.80;99.90;;;;;;8216043;28;20185;-71
2022/04/28 18:16:04;;;;;;;2.47;1.90;;;13.40;99.90;;;;;;8231986;28;20275;-71
2022/04/28 18:20:06;;;;;;;2.60;1.63;;;12.80;99.90;;;;;;8220819;28;20191;-70
2022/04/28 18:24:08;;;;;;;2.53;1.80;;;12.40;99.90;;;;;;8219531;28;20216;-71
2022/04/28 18:28:10;;;;;;;2.97;1.80;;;12.00;1.00;;;;;;8224349;28;20197;-71
2022/04/28 18:32:11;;;;;;;1.50;1.40;;;11.60;1.00;;;;;;8219178;28;20185;-71
2022/04/28 18:44:50;;;;;;;1.73;1.53;;;10.50;99.90;;;;;;8208609;28;20231;-70
2022/04/28 18:48:51;;;;;;;2.70;2.17;;;10.20;99.90;;;;;;8234114;28;20185;-71
2022/04/28 18:52:52;;;;;;;2.67;2.40;;;10.00;99.90;;;;;;8230763;28;20199;-70
2022/04/28 18:56:59;;;;;;;3.30;2.40;;;9.80;99.90;;;;;;8217523;28;20243;-70
2022/04/28 19:01:00;;;;;;;3.13;2.83;;;9.60;1.00;;;;;;8225636;28;20307;-70
2022/04/28 19:05:01;;;;;;;2.63;2.30;;;9.50;1.00;;;;;;8214179;28;20212;-70
2022/04/28 19:09:03;;;;;;;2.57;2.13;;;9.30;1.00;;;;;;8227446;28;20213;-69
2022/04/28 19:13:04;;;;;;;2.27;2.03;;;9.10;1.00;;;;;;8215169;28;20198;-70
2022/04/28 19:17:05;;;;;;;2.93;2.20;;;8.90;1.00;;;;;;8216716;28;20224;-70
2022/04/28 19:21:06;;;;;;;2.70;2.50;;;8.70;34.50;;;;;;8220887;28;20260;-70
2022/04/28 19:25:08;;;;;;;3.10;2.57;;;8.60;83.30;;;;;;8225201;28;20346;-70
2022/04/28 19:29:09;;;;;;;3.10;2.80;;;8.40;99.90;;;;;;8213602;28;20196;-70
2022/04/28 19:33:10;;;;;;;4.03;2.60;;;8.30;99.90;;;;;;8228006;28;20192;-70
2022/04/28 19:37:11;;;;;;;2.60;2.40;;;8.20;99.90;;;;;;8218079;28;20216;-70
2022/04/28 19:41:12;;;;;;;3.47;2.20;;;8.10;99.90;;;;;;8227390;28;20220;-71
2022/04/28 19:45:13;;;;;;;2.87;2.17;;;8.00;99.90;;;;;;8227869;28;20227;-70
2022/04/28 19:49:15;;;;;;;2.83;2.27;;;7.90;99.90;;;;;;8227994;28;20192;-70
2022/04/28 19:53:16;;;;;;;2.77;2.17;;;7.80;99.90;;;;;;8209484;28;20197;-71
2022/04/28 19:57:17;;;;;;;3.13;2.27;;;7.80;99.90;;;;;;8209960;28;20228;-71
2022/04/28 20:01:18;;;;;;;3.50;2.23;;;7.80;99.90;;;;;;8224473;28;20627;-70
2022/04/28 20:05:19;;;;;;;2.70;2.00;;;7.80;99.90;;;;;;8216861;28;20231;-70
2022/04/28 20:09:19;;;;;;;3.27;2.97;;;7.80;99.90;;;;;;8208415;28;20208;-72
2022/04/28 20:13:24;;;;;;;2.60;2.40;;;7.80;99.90;;;;;;8207710;28;20267;-69
2022/04/28 20:17:26;;;;;;;3.03;2.73;;;7.70;99.90;;;;;;8210914;28;20196;-70
2022/04/28 20:21:27;;;;;;;3.27;2.30;;;7.70;99.90;;;;;;8214182;28;20193;-70
2022/04/28 20:25:28;;;;;;;2.40;2.20;;;7.70;99.90;;;;;;8207662;28;20303;-69
2022/04/28 20:29:31;;;;;;;2.80;2.10;;;7.70;99.90;;;;;;8211074;28;20200;-70
2022/04/28 20:33:32;;;;;;;3.17;2.30;;;7.60;99.90;;;;;;8209729;28;20199;-69
2022/04/28 20:37:33;;;;;;;2.30;1.93;;;7.60;99.90;;;;;;8225394;28;20188;-69
2022/04/28 20:41:35;;;;;;;2.70;2.50;;;7.50;99.90;;;;;;8211628;28;20216;-69
2022/04/28 20:45:39;;;;;;;3.33;2.67;;;7.50;1.00;;;;;;8209870;28;20279;-69
2022/04/28 20:49:40;;;;;;;3.27;2.70;;;7.40;1.00;;;;;;8223513;28;20193;-68
2022/04/28 20:53:41;;;;;;;2.80;2.50;;;7.30;1.00;;;;;;8224768;28;20279;-71
2022/04/28 20:57:41;;;;;;;2.60;2.40;;;7.20;1.00;;;;;;8225366;28;20203;-70
2022/04/28 21:01:42;;;;;;;2.83;2.60;;;7.20;1.00;;;;;;8205680;28;20220;-70
2022/04/28 21:05:43;;;;;;;3.33;2.87;;;7.10;25.20;;;;;;8228797;28;20212;-69
2022/04/28 21:09:44;;;;;;;3.77;2.63;;;7.10;99.90;;;;;;8214212;28;20185;-70
2022/04/28 21:13:45;;;;;;;3.43;3.00;;;7.00;99.90;;;;;;8211423;28;20207;-69
2022/04/28 21:17:47;;;;;;;2.90;2.70;;;7.00;99.90;;;;;;8212152;28;20192;-69
2022/04/28 21:21:48;;;;;;;2.60;2.40;;;7.00;99.90;;;;;;8216942;28;20204;-69
2022/04/28 21:25:50;;;;;;;3.13;2.60;;;6.90;99.90;;;;;;8214003;28;20227;-69
2022/04/28 21:29:50;;;;;;;2.90;2.60;;;6.90;99.90;;;;;;8214324;28;20204;-70
2022/04/28 21:33:52;;;;;;;7.13;2.97;;;6.90;99.90;;;;;;8216489;28;20231;-68
2022/04/28 21:37:54;;;;;;;3.03;2.43;;;6.80;99.90;;;;;;8232767;28;20208;-69
2022/04/28 21:41:54;;;;;;;2.83;2.47;;;6.80;99.90;;;;;;8217673;28;20396;-69
2022/04/28 21:45:55;;;;;;;4.87;3.60;;;6.70;99.90;;;;;;8216598;28;20363;-68
2022/04/28 21:49:57;;;;;;;4.47;3.67;;;6.60;99.90;;;;;;8219009;28;20256;-69
2022/04/28 21:53:57;;;;;;;3.87;2.77;;;6.40;99.90;;;;;;8215524;28;20309;-69
2022/04/28 21:57:59;;;;;;;3.87;3.27;;;6.20;99.90;;;;;;8211361;28;20194;-69
2022/04/28 22:02:00;;;;;;;3.93;3.53;;;6.00;99.90;;;;;;8220409;28;20192;-69
2022/04/28 22:14:41;;;;;;;3.57;3.10;;;5.60;1.00;;;;;;8230546;28;20249;-69
2022/04/28 22:18:43;;;;;;;3.33;3.00;;;5.40;1.00;;;;;;8228091;28;20188;-69